createdAt,value
2022-11-28T00:01:30.703Z,12.27
2022-11-28T00:03:58.454Z,7.88
2022-11-28T00:06:27.381Z,8.37
2022-11-28T00:08:57.360Z,9.80
2022-11-28T00:11:24.981Z,10.00
2022-11-28T00:13:52.440Z,9.30
2022-11-28T00:16:22.079Z,8.73
2022-11-28T00:18:51.290Z,11.23
2022-11-28T00:21:19.540Z,11.67
2022-11-28T00:23:48.151Z,13.17
2022-11-28T00:26:36.815Z,7.90
2022-11-28T00:29:05.232Z,11.67
2022-11-28T00:31:36.019Z,6.43
2022-11-28T00:34:03.628Z,7.27
2022-11-28T00:36:31.291Z,11.43
2022-11-28T00:38:58.629Z,10.97
2022-11-28T00:41:29.322Z,8.77
2022-11-28T00:43:57.482Z,5.80
2022-11-28T00:46:25.636Z,13.10
2022-11-28T00:48:53.172Z,11.77
2022-11-28T00:51:26.140Z,7.57
2022-11-28T00:53:55.563Z,8.10
2022-11-28T00:56:26.083Z,9.30
2022-11-28T00:58:53.716Z,6.23
2022-11-28T01:01:36.662Z,5.93
2022-11-28T01:04:08.140Z,7.67
2022-11-28T01:06:38.468Z,6.97
2022-11-28T01:09:09.333Z,4.93
2022-11-28T01:11:39.398Z,8.53
2022-11-28T01:14:08.192Z,7.97
2022-11-28T01:16:35.642Z,7.60
2022-11-28T01:19:03.510Z,8.07
2022-11-28T01:21:30.969Z,6.47
2022-11-28T01:23:58.379Z,10.70
2022-11-28T01:26:28.277Z,7.43
2022-11-28T01:28:56.042Z,5.97
2022-11-28T01:31:26.085Z,5.47
2022-11-28T01:33:53.697Z,7.17
2022-11-28T01:36:22.536Z,6.87
2022-11-28T01:38:51.112Z,5.83
2022-11-28T01:41:22.034Z,6.30
2022-11-28T01:44:12.222Z,7.63
2022-11-28T01:46:39.647Z,7.30
2022-11-28T01:49:35.121Z,11.03
2022-11-28T01:52:06.040Z,7.47
2022-11-28T01:54:35.425Z,7.63
2022-11-28T01:57:08.275Z,5.60
2022-11-28T01:59:44.737Z,8.40
2022-11-28T02:02:20.837Z,5.53
2022-11-28T02:04:50.344Z,12.77
2022-11-28T02:07:18.620Z,8.60
2022-11-28T02:09:45.967Z,7.50
2022-11-28T02:12:32.758Z,11.70
2022-11-28T02:15:21.704Z,7.10
2022-11-28T02:18:31.220Z,9.77
2022-11-28T02:21:24.973Z,7.50
2022-11-28T02:24:24.850Z,8.93
2022-11-28T02:27:10.284Z,7.03
2022-11-28T02:30:08.137Z,6.87
2022-11-28T02:33:02.658Z,6.10
2022-11-28T02:35:41.594Z,7.47
2022-11-28T02:38:36.357Z,8.40
2022-11-28T02:41:20.618Z,8.23
2022-11-28T02:44:22.435Z,10.43
2022-11-28T02:47:03.105Z,5.25
2022-11-28T02:49:56.144Z,8.07
2022-11-28T02:52:34.591Z,8.93
2022-11-28T02:55:02.489Z,6.97
2022-11-28T02:57:39.210Z,7.20
2022-11-28T03:00:31.503Z,12.93
2022-11-28T03:03:11.204Z,6.45
2022-11-28T03:05:57.514Z,7.17
2022-11-28T03:09:06.272Z,5.13
2022-11-28T03:12:06.114Z,8.33
2022-11-28T03:14:54.043Z,8.70
2022-11-28T03:18:00.642Z,9.73
2022-11-28T03:20:46.949Z,6.30
2022-11-28T03:23:33.584Z,10.10
2022-11-28T03:26:24.476Z,6.57
2022-11-28T03:29:05.357Z,8.50
2022-11-28T03:32:01.830Z,9.60
2022-11-28T03:34:35.007Z,10.50
2022-11-28T03:37:08.351Z,10.03
2022-11-28T03:39:39.998Z,9.90
2022-11-28T03:42:14.638Z,7.90
2022-11-28T03:44:54.306Z,7.57
2022-11-28T03:47:26.657Z,8.20
2022-11-28T03:49:56.049Z,6.47
2022-11-28T03:52:29.603Z,11.33
2022-11-28T03:55:06.687Z,5.73
2022-11-28T03:57:35.880Z,8.83
2022-11-28T04:00:13.020Z,7.80
2022-11-28T04:02:57.204Z,9.70
2022-11-28T04:05:43.295Z,6.83
2022-11-28T04:08:30.897Z,7.13
2022-11-28T04:11:20.364Z,10.57
2022-11-28T04:13:58.639Z,10.67
2022-11-28T04:16:35.784Z,10.27
2022-11-28T04:19:33.854Z,9.23
2022-11-28T04:22:09.986Z,12.23
2022-11-28T04:24:45.773Z,5.47
2022-11-28T04:27:17.955Z,10.90
2022-11-28T04:29:49.311Z,7.53
2022-11-28T04:32:19.635Z,7.60
2022-11-28T04:34:52.878Z,8.43
2022-11-28T04:37:22.034Z,8.03
2022-11-28T04:39:50.419Z,8.47
2022-11-28T04:42:32.620Z,7.47
2022-11-28T04:45:16.661Z,7.03
2022-11-28T04:47:45.314Z,8.27
2022-11-28T04:50:13.600Z,7.20
2022-11-28T04:52:56.154Z,7.97
2022-11-28T04:55:42.345Z,9.47
2022-11-28T04:58:40.605Z,10.10
2022-11-28T05:01:11.506Z,7.50
2022-11-28T05:03:42.608Z,9.13
2022-11-28T05:06:10.386Z,7.05
2022-11-28T05:08:37.797Z,10.87
2022-11-28T05:11:05.356Z,9.63
2022-11-28T05:13:32.748Z,9.70
2022-11-28T05:16:01.580Z,9.73
2022-11-28T05:18:29.094Z,7.73
2022-11-28T05:20:59.333Z,9.53
2022-11-28T05:23:26.726Z,12.00
2022-11-28T05:25:54.076Z,10.20
2022-11-28T05:28:21.428Z,12.53
2022-11-28T05:30:58.131Z,14.77
2022-11-28T05:33:25.535Z,8.73
2022-11-28T05:35:53.038Z,14.33
2022-11-28T05:38:20.416Z,10.07
2022-11-28T05:40:47.834Z,10.10
2022-11-28T05:43:15.261Z,11.27
2022-11-28T05:45:43.771Z,5.90
2022-11-28T05:48:11.920Z,10.63
2022-11-28T05:50:40.638Z,12.77
2022-11-28T05:53:09.271Z,7.90
2022-11-28T05:55:39.215Z,9.87
2022-11-28T05:58:07.176Z,13.30
2022-11-28T06:00:34.530Z,11.93
2022-11-28T06:03:02.115Z,8.20
2022-11-28T06:05:42.319Z,12.17
2022-11-28T06:08:14.135Z,11.20
2022-11-28T06:10:41.844Z,14.37
2022-11-28T06:13:09.349Z,13.13
2022-11-28T06:15:38.525Z,9.53
2022-11-28T06:18:06.256Z,11.53
2022-11-28T06:20:35.813Z,12.57
2022-11-28T06:23:03.233Z,9.63
2022-11-28T06:25:30.601Z,7.30
2022-11-28T06:27:57.985Z,10.50
2022-11-28T06:30:25.367Z,9.43
2022-11-28T06:32:58.029Z,13.27
2022-11-28T06:35:25.500Z,9.67
2022-11-28T06:37:52.915Z,9.83
2022-11-28T06:40:20.306Z,8.97
2022-11-28T06:45:42.085Z,8.23
2022-11-28T06:48:09.503Z,8.60
2022-11-28T06:50:37.164Z,7.47
2022-11-28T06:53:04.490Z,8.37
2022-11-28T06:55:31.871Z,11.80
2022-11-28T06:57:59.314Z,13.33
2022-11-28T07:00:27.552Z,8.77
2022-11-28T07:02:55.077Z,12.77
2022-11-28T07:05:22.999Z,7.23
2022-11-28T07:07:54.444Z,9.60
2022-11-28T07:10:22.601Z,10.65
2022-11-28T07:13:05.213Z,8.93
2022-11-28T07:15:33.129Z,8.30
2022-11-28T07:18:01.292Z,11.17
2022-11-28T07:20:29.078Z,8.43
2022-11-28T07:22:56.650Z,11.40
2022-11-28T07:25:24.105Z,9.30
2022-11-28T07:27:51.564Z,11.57
2022-11-28T07:30:20.292Z,10.77
2022-11-28T07:32:47.767Z,9.33
2022-11-28T07:35:15.379Z,11.50
2022-11-28T07:37:42.961Z,7.10
2022-11-28T07:40:10.768Z,13.17
2022-11-28T07:42:38.396Z,8.70
2022-11-28T07:45:06.849Z,8.67
2022-11-28T07:47:34.646Z,7.23
2022-11-28T07:50:02.226Z,7.70
2022-11-28T07:52:29.790Z,9.87
2022-11-28T07:54:57.272Z,8.97
2022-11-28T07:57:24.822Z,9.80
2022-11-28T07:59:52.256Z,8.03
2022-11-28T08:02:19.817Z,8.70
2022-11-28T08:04:51.591Z,11.47
2022-11-28T08:07:21.626Z,6.93
2022-11-28T08:09:49.156Z,9.93
2022-11-28T08:12:16.601Z,6.60
2022-11-28T08:14:44.502Z,7.60
2022-11-28T08:17:12.302Z,7.93
2022-11-28T08:19:39.735Z,6.47
2022-11-28T08:22:07.639Z,7.63
2022-11-28T08:24:35.113Z,13.53
2022-11-28T08:27:02.650Z,8.60
2022-11-28T08:29:30.454Z,9.23
2022-11-28T08:31:58.004Z,7.57
2022-11-28T08:34:25.408Z,5.43
2022-11-28T08:36:53.053Z,7.50
2022-11-28T08:39:25.103Z,8.90
2022-11-28T08:41:57.398Z,8.73
2022-11-28T08:44:26.002Z,5.65
2022-11-28T08:46:54.166Z,7.80
2022-11-28T08:49:21.783Z,7.87
2022-11-28T08:51:49.411Z,11.00
2022-11-28T08:54:17.026Z,7.33
2022-11-28T08:56:46.619Z,6.27
2022-11-28T08:59:14.381Z,7.27
2022-11-28T09:01:41.826Z,8.13
2022-11-28T09:04:09.427Z,9.10
2022-11-28T09:06:40.002Z,8.27
2022-11-28T09:09:09.182Z,7.83
2022-11-28T09:11:37.219Z,7.20
2022-11-28T09:14:05.017Z,8.30
2022-11-28T09:16:32.586Z,7.73
2022-11-28T09:19:00.346Z,6.23
2022-11-28T09:21:27.952Z,5.20
2022-11-28T09:23:56.455Z,5.37
2022-11-28T09:26:25.300Z,10.00
2022-11-28T09:28:53.703Z,5.30
2022-11-28T09:31:21.585Z,8.37
2022-11-28T09:33:51.860Z,9.03
2022-11-28T09:36:21.816Z,7.07
2022-11-28T09:38:50.374Z,8.70
2022-11-28T09:41:29.171Z,7.63
2022-11-28T09:44:18.655Z,6.37
2022-11-28T09:46:49.924Z,7.47
2022-11-28T09:49:42.510Z,7.83
2022-11-28T09:52:46.730Z,5.47
2022-11-28T09:55:47.401Z,8.77
2022-11-28T09:58:26.580Z,10.53
2022-11-28T10:01:02.214Z,6.57
2022-11-28T10:03:52.551Z,7.33
2022-11-28T10:06:52.393Z,7.47
2022-11-28T10:10:02.485Z,8.97
2022-11-28T10:12:50.513Z,7.27
2022-11-28T10:16:05.389Z,8.30
2022-11-28T10:18:47.316Z,7.90
2022-11-28T10:21:31.916Z,6.95
2022-11-28T10:24:11.986Z,7.73
2022-11-28T10:26:45.211Z,9.60
2022-11-28T10:29:33.095Z,10.75
2022-11-28T10:32:03.938Z,9.98
2022-11-28T10:34:45.548Z,9.47
2022-11-28T10:37:24.100Z,8.30
2022-11-28T10:39:51.951Z,9.40
2022-11-28T10:42:39.499Z,11.80
2022-11-28T10:45:45.903Z,9.80
2022-11-28T10:48:40.865Z,7.95
2022-11-28T10:52:09.971Z,9.93
2022-11-28T10:55:00.805Z,8.88
2022-11-28T10:57:40.900Z,10.73
2022-11-28T11:00:14.890Z,10.95
2022-11-28T11:02:55.202Z,8.15
2022-11-28T11:05:30.474Z,7.25
2022-11-28T11:08:18.393Z,8.65
2022-11-28T11:10:51.208Z,9.77
2022-11-28T11:13:24.168Z,9.35
2022-11-28T11:16:08.151Z,10.30
2022-11-28T11:18:55.434Z,9.20
2022-11-28T11:21:26.130Z,11.83
2022-11-28T11:24:32.172Z,10.48
2022-11-28T11:27:15.385Z,7.97
2022-11-28T11:29:44.952Z,9.80
2022-11-28T11:32:28.043Z,8.48
2022-11-28T11:34:57.929Z,8.68
2022-11-28T11:37:38.823Z,10.05
2022-11-28T11:40:24.797Z,11.43
2022-11-28T11:43:00.787Z,8.20
2022-11-28T11:45:34.233Z,9.55
2022-11-28T11:48:03.790Z,10.80
2022-11-28T11:50:32.138Z,7.90
2022-11-28T11:53:19.130Z,10.43
2022-11-28T11:55:54.021Z,9.35
2022-11-28T11:58:52.660Z,10.25
2022-11-28T12:01:22.308Z,8.48
2022-11-28T12:04:23.635Z,12.50
2022-11-28T12:06:56.829Z,9.32
2022-11-28T12:09:54.483Z,7.05
2022-11-28T12:12:30.905Z,9.40
2022-11-28T12:14:58.536Z,7.03
2022-11-28T12:18:03.989Z,8.45
2022-11-28T12:20:49.468Z,11.43
2022-11-28T12:23:41.645Z,8.63
2022-11-28T12:26:35.032Z,7.35
2022-11-28T12:29:29.228Z,11.20
2022-11-28T12:32:34.680Z,8.75
2022-11-28T12:35:32.228Z,10.15
2022-11-28T12:38:51.095Z,13.32
2022-11-28T12:41:58.364Z,6.90
2022-11-28T12:44:53.825Z,11.15
2022-11-28T12:48:20.381Z,10.35
2022-11-28T12:50:55.620Z,10.63
2022-11-28T12:54:13.318Z,10.75
2022-11-28T12:57:11.895Z,10.98
2022-11-28T13:00:18.363Z,9.48
2022-11-28T13:03:19.248Z,10.93
2022-11-28T13:06:22.275Z,8.05
2022-11-28T13:09:25.514Z,8.15
2022-11-28T13:12:23.827Z,11.73
2022-11-28T13:15:03.369Z,10.52
2022-11-28T13:18:21.191Z,12.32
2022-11-28T13:24:40.303Z,11.13
2022-11-28T13:27:34.516Z,9.25
2022-11-28T13:30:23.160Z,11.57
2022-11-28T13:33:15.107Z,12.73
2022-11-28T13:35:46.004Z,9.82
2022-11-28T13:38:57.415Z,9.73
2022-11-28T13:42:21.331Z,10.38
2022-11-28T13:45:23.782Z,10.50
2022-11-28T13:47:55.770Z,8.48
2022-11-28T13:50:38.399Z,13.85
2022-11-28T13:53:10.509Z,8.68
2022-11-28T13:55:47.183Z,9.90
2022-11-28T13:58:28.522Z,10.23
2022-11-28T14:01:12.997Z,10.90
2022-11-28T14:04:06.846Z,10.95
2022-11-28T14:06:52.268Z,12.98
2022-11-28T14:10:09.937Z,11.40
2022-11-28T14:13:02.720Z,11.10
2022-11-28T14:15:58.354Z,11.05
2022-11-28T14:19:01.203Z,10.98
2022-11-28T14:21:57.242Z,12.73
2022-11-28T14:25:03.148Z,11.70
2022-11-28T14:27:35.979Z,12.93
2022-11-28T14:30:07.034Z,12.80
2022-11-28T14:32:44.943Z,13.63
2022-11-28T14:35:37.774Z,14.47
2022-11-28T14:38:51.738Z,16.10
2022-11-28T14:41:20.334Z,15.83
2022-11-28T14:43:48.803Z,11.50
2022-11-28T14:46:19.472Z,13.03
2022-11-28T14:49:20.267Z,11.85
2022-11-28T14:52:37.289Z,10.80
2022-11-28T14:54:58.396Z,11.77
2022-11-28T14:57:29.053Z,11.57
2022-11-28T14:59:59.710Z,10.43
2022-11-28T15:02:56.262Z,14.00
2022-11-28T15:05:36.976Z,13.13
2022-11-28T15:08:47.156Z,10.20
2022-11-28T15:11:36.902Z,11.67
2022-11-28T15:14:08.417Z,14.03
2022-11-28T15:16:43.878Z,12.07
2022-11-28T15:19:27.235Z,10.93
2022-11-28T15:21:56.075Z,11.80
2022-11-28T15:24:32.699Z,9.30
2022-11-28T15:27:29.633Z,14.20
2022-11-28T15:30:00.491Z,9.50
2022-11-28T15:32:31.551Z,12.20
2022-11-28T15:35:10.925Z,9.50
2022-11-28T15:37:56.676Z,12.47
2022-11-28T15:40:36.272Z,8.80
2022-11-28T15:43:11.080Z,13.03
2022-11-28T15:45:42.346Z,13.90
2022-11-28T15:48:49.602Z,15.20
2022-11-28T15:51:34.323Z,15.67
2022-11-28T15:54:13.388Z,17.57
2022-11-28T15:56:59.869Z,10.83
2022-11-28T15:59:28.958Z,11.40
2022-11-28T16:02:11.830Z,16.33
2022-11-28T16:04:39.880Z,13.53
2022-11-28T16:07:13.428Z,13.00
2022-11-28T16:09:53.105Z,12.40
2022-11-28T16:12:20.669Z,12.97
2022-11-28T16:14:48.906Z,12.33
2022-11-28T16:17:43.131Z,13.00
2022-11-28T16:20:37.303Z,15.90
2022-11-28T16:23:17.864Z,14.67
2022-11-28T16:25:45.473Z,12.00
2022-11-28T16:28:40.745Z,13.63
2022-11-28T16:31:13.284Z,12.50
2022-11-28T16:33:43.933Z,9.47
2022-11-28T16:36:22.283Z,11.80
2022-11-28T16:38:52.358Z,10.97
2022-11-28T16:41:26.831Z,11.27
2022-11-28T16:44:02.545Z,12.93
2022-11-28T16:46:39.899Z,11.53
2022-11-28T16:49:24.943Z,14.23
2022-11-28T16:52:21.152Z,12.93
2022-11-28T16:54:49.892Z,11.77
2022-11-28T16:57:19.127Z,11.40
2022-11-28T16:59:47.622Z,12.27
2022-11-28T17:02:16.662Z,14.37
2022-11-28T17:04:45.128Z,15.60
2022-11-28T17:07:15.174Z,13.50
2022-11-28T17:09:43.645Z,15.70
2022-11-28T17:12:27.361Z,13.27
2022-11-28T17:14:55.888Z,14.03
2022-11-28T17:17:23.702Z,13.43
2022-11-28T17:19:51.654Z,15.17
2022-11-28T17:22:25.471Z,16.17
2022-11-28T17:24:58.007Z,11.97
2022-11-28T17:27:25.393Z,14.77
2022-11-28T17:29:52.709Z,13.93
2022-11-28T17:32:20.209Z,12.70
2022-11-28T17:34:47.552Z,15.33
2022-11-28T17:37:15.169Z,13.37
2022-11-28T17:40:04.736Z,10.73
2022-11-28T17:42:32.467Z,14.17
2022-11-28T17:45:00.077Z,14.50
2022-11-28T17:47:27.765Z,11.47
2022-11-28T17:49:55.880Z,13.63
2022-11-28T17:52:30.224Z,13.73
2022-11-28T17:55:06.981Z,12.87
2022-11-28T17:57:35.873Z,15.30
2022-11-28T18:00:06.671Z,15.47
2022-11-28T18:02:41.704Z,13.53
2022-11-28T18:05:09.786Z,15.23
2022-11-28T18:07:39.230Z,15.50
2022-11-28T18:10:09.869Z,17.83
2022-11-28T18:12:38.549Z,11.73
2022-11-28T18:15:10.231Z,13.43
2022-11-28T18:17:38.226Z,15.00
2022-11-28T18:20:06.560Z,14.83
2022-11-28T18:22:34.073Z,12.17
2022-11-28T18:25:01.820Z,14.13
2022-11-28T18:27:29.679Z,16.40
2022-11-28T18:29:57.098Z,11.27
2022-11-28T18:32:24.656Z,11.23
2022-11-28T18:34:52.084Z,11.13
2022-11-28T18:37:19.462Z,15.77
2022-11-28T18:39:47.342Z,14.93
2022-11-28T18:42:14.956Z,12.47
2022-11-28T18:44:42.413Z,13.82
2022-11-28T18:47:09.771Z,16.08
2022-11-28T18:49:37.493Z,15.60
2022-11-28T18:52:05.013Z,20.77
2022-11-28T18:54:33.561Z,14.00
2022-11-28T18:57:01.185Z,16.43
2022-11-28T18:59:28.866Z,13.63
2022-11-28T19:01:56.513Z,14.70
2022-11-28T19:04:24.056Z,11.53
2022-11-28T19:06:51.449Z,14.00
2022-11-28T19:09:22.335Z,14.17
2022-11-28T19:11:49.765Z,15.45
2022-11-28T19:14:19.694Z,18.60
2022-11-28T19:16:49.407Z,16.50
2022-11-28T19:19:18.276Z,11.50
2022-11-28T19:21:48.634Z,12.75
2022-11-28T19:24:16.473Z,13.65
2022-11-28T19:26:43.823Z,12.27
2022-11-28T19:29:11.554Z,14.53
2022-11-28T19:31:40.569Z,17.00
2022-11-28T19:34:14.248Z,18.03
2022-11-28T19:36:47.306Z,17.30
2022-11-28T19:39:18.272Z,17.50
2022-11-28T19:41:46.485Z,16.37
2022-11-28T19:44:14.728Z,17.50
2022-11-28T19:46:43.636Z,19.25
2022-11-28T19:49:20.444Z,15.30
2022-11-28T19:51:49.876Z,13.00
2022-11-28T19:54:21.548Z,15.37
2022-11-28T19:56:49.438Z,11.30
2022-11-28T19:59:17.294Z,16.77
2022-11-28T20:01:45.518Z,13.93
2022-11-28T20:04:14.522Z,13.97
2022-11-28T20:06:42.284Z,11.17
2022-11-28T20:09:12.550Z,16.20
2022-11-28T20:11:43.191Z,13.20
2022-11-28T20:14:19.367Z,14.80
2022-11-28T20:16:46.975Z,14.97
2022-11-28T20:19:17.789Z,17.33
2022-11-28T20:21:46.316Z,11.23
2022-11-28T20:24:15.020Z,16.00
2022-11-28T20:26:43.744Z,15.83
2022-11-28T20:29:14.407Z,16.60
2022-11-28T20:31:45.735Z,14.90
2022-11-28T20:34:17.498Z,12.27
2022-11-28T20:36:45.647Z,15.97
2022-11-28T20:39:13.852Z,16.20
2022-11-28T20:41:41.219Z,13.33
2022-11-28T20:44:09.623Z,12.37
2022-11-28T20:46:36.974Z,17.50
2022-11-28T20:49:06.628Z,11.97
2022-11-28T20:51:35.480Z,13.17
2022-11-28T20:54:04.980Z,13.17
2022-11-28T20:59:27.773Z,20.03
2022-11-28T21:01:55.259Z,13.27
2022-11-28T21:04:22.760Z,14.60
2022-11-28T21:06:50.158Z,14.37
2022-11-28T21:09:20.877Z,14.07
2022-11-28T21:11:58.674Z,12.07
2022-11-28T21:14:28.296Z,14.87
2022-11-28T21:16:56.503Z,14.33
2022-11-28T21:19:23.976Z,12.37
2022-11-28T21:21:51.496Z,11.53
2022-11-28T21:24:18.996Z,13.87
2022-11-28T21:26:52.647Z,13.23
2022-11-28T21:29:22.665Z,13.90
2022-11-28T21:31:50.345Z,12.73
2022-11-28T21:34:19.456Z,15.43
2022-11-28T21:36:47.180Z,13.37
2022-11-28T21:39:17.474Z,13.10
2022-11-28T21:41:45.331Z,14.77
2022-11-28T21:44:12.746Z,13.00
2022-11-28T21:46:40.599Z,15.07
2022-11-28T21:49:07.998Z,14.70
2022-11-28T21:51:39.754Z,13.20
2022-11-28T21:54:07.506Z,15.50
2022-11-28T21:56:34.867Z,14.43
2022-11-28T21:59:05.205Z,14.00
2022-11-28T22:01:38.450Z,14.33
2022-11-28T22:04:06.481Z,14.33
2022-11-28T22:06:33.951Z,12.47
2022-11-28T22:09:09.091Z,15.52
2022-11-28T22:11:39.217Z,13.20
2022-11-28T22:14:06.952Z,18.97
2022-11-28T22:16:34.336Z,12.52
2022-11-28T22:19:01.873Z,14.67
2022-11-28T22:24:17.915Z,14.27
2022-11-28T22:26:45.290Z,14.43
2022-11-28T22:29:14.346Z,14.10
2022-11-28T22:31:41.891Z,13.77
2022-11-28T22:34:10.011Z,14.90
2022-11-28T22:36:38.635Z,13.77
2022-11-28T22:39:06.401Z,14.17
2022-11-28T22:41:34.019Z,17.90
2022-11-28T22:44:03.930Z,14.38
2022-11-28T22:46:33.076Z,14.13
2022-11-28T22:49:01.549Z,16.57
2022-11-28T22:51:30.110Z,14.90
2022-11-28T22:54:01.291Z,17.03
2022-11-28T22:56:31.597Z,14.88
2022-11-28T22:58:59.835Z,18.40
2022-11-28T23:01:30.487Z,15.30
2022-11-28T23:03:59.304Z,14.27
2022-11-28T23:06:29.813Z,15.97
2022-11-28T23:08:59.150Z,17.17
2022-11-28T23:11:29.355Z,14.60
2022-11-28T23:13:57.089Z,16.47
2022-11-28T23:16:27.792Z,17.87
2022-11-28T23:18:58.228Z,16.33
2022-11-28T23:21:29.199Z,14.93
2022-11-28T23:23:56.628Z,14.60
2022-11-28T23:26:28.674Z,12.60
2022-11-28T23:28:57.976Z,12.63
2022-11-28T23:31:29.176Z,12.80
2022-11-28T23:33:57.856Z,16.90
2022-11-28T23:36:31.165Z,15.63
2022-11-28T23:39:02.991Z,17.13
2022-11-28T23:41:30.930Z,12.37
2022-11-28T23:43:58.840Z,15.87
2022-11-28T23:46:27.165Z,12.70
2022-11-28T23:48:55.065Z,14.80
2022-11-28T23:51:25.236Z,13.77
2022-11-28T23:53:53.603Z,12.47
2022-11-28T23:56:26.504Z,13.80
2022-11-28T23:58:55.264Z,15.60
